sensor_id;sensor_type;location;lat;lon;timestamp;pressure;altitude;pressure_sealevel;temperature;humidity
28630;BME280;15817;42.130;24.762;2022-07-05T00:01:13;99922.06;;;25.37;45.46
28630;BME280;15817;42.130;24.762;2022-07-05T00:03:39;99922.94;;;25.37;45.43
28630;BME280;15817;42.130;24.762;2022-07-05T00:06:05;99915.31;;;25.42;45.43
28630;BME280;15817;42.130;24.762;2022-07-05T00:08:31;99915.47;;;25.53;45.29
28630;BME280;15817;42.130;24.762;2022-07-05T00:10:56;99913.09;;;25.49;45.17
28630;BME280;15817;42.130;24.762;2022-07-05T00:13:22;99913.28;;;25.46;45.53
28630;BME280;15817;42.130;24.762;2022-07-05T00:15:48;99904.25;;;25.31;45.61
28630;BME280;15817;42.130;24.762;2022-07-05T00:18:17;99914.69;;;25.24;45.81
28630;BME280;15817;42.130;24.762;2022-07-05T00:20:43;99928.41;;;25.23;46.24
28630;BME280;15817;42.130;24.762;2022-07-05T00:23:09;99914.88;;;25.21;46.20
28630;BME280;15817;42.130;24.762;2022-07-05T00:25:35;99908.28;;;25.25;46.14
28630;BME280;15817;42.130;24.762;2022-07-05T00:28:05;99914.59;;;25.26;46.32
28630;BME280;15817;42.130;24.762;2022-07-05T00:30:30;99915.94;;;25.33;46.41
28630;BME280;15817;42.130;24.762;2022-07-05T00:32:56;99906.88;;;25.33;46.30
28630;BME280;15817;42.130;24.762;2022-07-05T00:35:25;99909.19;;;25.39;46.30
28630;BME280;15817;42.130;24.762;2022-07-05T00:37:51;99899.31;;;25.38;46.32
28630;BME280;15817;42.130;24.762;2022-07-05T00:40:17;99885.00;;;25.34;46.52
28630;BME280;15817;42.130;24.762;2022-07-05T00:42:43;99887.13;;;25.43;46.67
28630;BME280;15817;42.130;24.762;2022-07-05T00:45:09;99887.88;;;25.45;46.53
28630;BME280;15817;42.130;24.762;2022-07-05T00:47:35;99883.00;;;25.50;46.55
28630;BME280;15817;42.130;24.762;2022-07-05T00:50:01;99894.50;;;25.41;46.74
28630;BME280;15817;42.130;24.762;2022-07-05T00:52:27;99888.00;;;25.44;47.12
28630;BME280;15817;42.130;24.762;2022-07-05T00:54:53;99881.13;;;25.38;47.01
28630;BME280;15817;42.130;24.762;2022-07-05T00:57:22;99877.38;;;25.39;46.91
28630;BME280;15817;42.130;24.762;2022-07-05T00:59:49;99870.03;;;25.27;47.56
28630;BME280;15817;42.130;24.762;2022-07-05T01:02:18;99871.50;;;25.33;47.33
28630;BME280;15817;42.130;24.762;2022-07-05T01:04:47;99863.31;;;25.33;47.14
28630;BME280;15817;42.130;24.762;2022-07-05T01:07:13;99875.19;;;25.32;47.30
28630;BME280;15817;42.130;24.762;2022-07-05T01:09:42;99874.34;;;25.17;47.40
28630;BME280;15817;42.130;24.762;2022-07-05T01:12:08;99874.94;;;25.08;47.78
28630;BME280;15817;42.130;24.762;2022-07-05T01:14:34;99875.72;;;25.10;47.84
28630;BME280;15817;42.130;24.762;2022-07-05T01:17:00;99865.22;;;25.04;48.11
28630;BME280;15817;42.130;24.762;2022-07-05T01:19:26;99876.25;;;25.02;48.18
28630;BME280;15817;42.130;24.762;2022-07-05T01:21:52;99869.34;;;24.97;48.19
28630;BME280;15817;42.130;24.762;2022-07-05T01:24:18;99863.50;;;24.88;48.44
28630;BME280;15817;42.130;24.762;2022-07-05T01:26:49;99859.13;;;24.86;48.32
28630;BME280;15817;42.130;24.762;2022-07-05T01:29:16;99864.97;;;24.80;48.66
28630;BME280;15817;42.130;24.762;2022-07-05T01:31:42;99863.50;;;24.74;48.94
28630;BME280;15817;42.130;24.762;2022-07-05T01:34:08;99861.94;;;24.84;48.88
28630;BME280;15817;42.130;24.762;2022-07-05T01:36:35;99848.94;;;24.75;48.88
28630;BME280;15817;42.130;24.762;2022-07-05T01:39:03;99852.34;;;24.79;48.93
28630;BME280;15817;42.130;24.762;2022-07-05T01:41:29;99863.00;;;24.82;49.07
28630;BME280;15817;42.130;24.762;2022-07-05T01:43:54;99854.56;;;24.86;48.75
28630;BME280;15817;42.130;24.762;2022-07-05T01:46:22;99852.03;;;24.83;48.89
28630;BME280;15817;42.130;24.762;2022-07-05T01:48:51;99854.47;;;24.88;48.76
28630;BME280;15817;42.130;24.762;2022-07-05T01:51:24;99848.34;;;24.84;49.07
28630;BME280;15817;42.130;24.762;2022-07-05T01:53:52;99857.56;;;24.82;48.91
28630;BME280;15817;42.130;24.762;2022-07-05T01:56:19;99871.56;;;24.76;49.16
28630;BME280;15817;42.130;24.762;2022-07-05T01:58:45;99863.41;;;24.62;49.69
28630;BME280;15817;42.130;24.762;2022-07-05T02:01:12;99871.19;;;24.68;49.73
28630;BME280;15817;42.130;24.762;2022-07-05T02:03:50;99865.16;;;24.63;49.97
28630;BME280;15817;42.130;24.762;2022-07-05T02:06:15;99870.41;;;24.66;50.01
28630;BME280;15817;42.130;24.762;2022-07-05T02:08:41;99856.22;;;24.61;50.25
28630;BME280;15817;42.130;24.762;2022-07-05T02:11:09;99862.34;;;24.64;50.10
28630;BME280;15817;42.130;24.762;2022-07-05T02:13:36;99871.28;;;24.66;50.01
28630;BME280;15817;42.130;24.762;2022-07-05T02:16:04;99873.22;;;24.64;50.49
28630;BME280;15817;42.130;24.762;2022-07-05T02:18:30;99870.78;;;24.60;50.35
28630;BME280;15817;42.130;24.762;2022-07-05T02:20:55;99889.56;;;24.64;50.37
28630;BME280;15817;42.130;24.762;2022-07-05T02:23:22;99891.09;;;24.54;50.71
28630;BME280;15817;42.130;24.762;2022-07-05T02:25:47;99894.00;;;24.51;50.55
28630;BME280;15817;42.130;24.762;2022-07-05T02:28:16;99884.00;;;24.51;50.47
28630;BME280;15817;42.130;24.762;2022-07-05T02:30:45;99881.00;;;24.56;49.64
28630;BME280;15817;42.130;24.762;2022-07-05T02:33:11;99879.34;;;24.53;49.22
28630;BME280;15817;42.130;24.762;2022-07-05T02:35:40;99903.53;;;24.58;48.69
28630;BME280;15817;42.130;24.762;2022-07-05T02:38:06;99895.66;;;24.53;48.82
28630;BME280;15817;42.130;24.762;2022-07-05T02:40:32;99892.25;;;24.50;48.72
28630;BME280;15817;42.130;24.762;2022-07-05T02:43:00;99906.16;;;24.45;48.82
28630;BME280;15817;42.130;24.762;2022-07-05T02:45:25;99889.53;;;24.36;48.87
28630;BME280;15817;42.130;24.762;2022-07-05T02:48:00;99891.56;;;24.32;48.67
28630;BME280;15817;42.130;24.762;2022-07-05T02:50:29;99904.09;;;24.35;48.75
28630;BME280;15817;42.130;24.762;2022-07-05T02:52:55;99906.94;;;24.33;48.96
28630;BME280;15817;42.130;24.762;2022-07-05T02:55:21;99897.03;;;24.32;49.08
28630;BME280;15817;42.130;24.762;2022-07-05T02:57:48;99895.53;;;24.27;49.30
28630;BME280;15817;42.130;24.762;2022-07-05T03:00:16;99891.06;;;24.26;49.15
28630;BME280;15817;42.130;24.762;2022-07-05T03:02:47;99900.28;;;24.23;49.25
28630;BME280;15817;42.130;24.762;2022-07-05T03:05:14;99895.38;;;24.14;49.31
28630;BME280;15817;42.130;24.762;2022-07-05T03:07:47;99913.44;;;24.15;49.92
28630;BME280;15817;42.130;24.762;2022-07-05T03:10:12;99912.66;;;24.13;49.83
28630;BME280;15817;42.130;24.762;2022-07-05T03:12:38;99918.97;;;24.13;49.94
28630;BME280;15817;42.130;24.762;2022-07-05T03:15:09;99915.66;;;24.08;50.26
28630;BME280;15817;42.130;24.762;2022-07-05T03:17:35;99900.91;;;23.98;50.53
28630;BME280;15817;42.130;24.762;2022-07-05T03:20:01;99904.56;;;23.97;50.65
28630;BME280;15817;42.130;24.762;2022-07-05T03:22:28;99907.38;;;23.96;50.91
28630;BME280;15817;42.130;24.762;2022-07-05T03:24:55;99905.97;;;23.89;50.85
28630;BME280;15817;42.130;24.762;2022-07-05T03:27:21;99909.56;;;23.89;51.43
28630;BME280;15817;42.130;24.762;2022-07-05T03:29:50;99908.59;;;23.90;51.45
28630;BME280;15817;42.130;24.762;2022-07-05T03:32:19;99898.13;;;23.84;51.43
28630;BME280;15817;42.130;24.762;2022-07-05T03:34:47;99907.72;;;23.90;51.24
28630;BME280;15817;42.130;24.762;2022-07-05T03:37:16;99887.44;;;23.81;51.52
28630;BME280;15817;42.130;24.762;2022-07-05T03:39:42;99898.13;;;23.84;51.61
28630;BME280;15817;42.130;24.762;2022-07-05T03:42:09;99890.25;;;23.79;51.79
28630;BME280;15817;42.130;24.762;2022-07-05T03:44:34;99893.03;;;23.78;51.75
28630;BME280;15817;42.130;24.762;2022-07-05T03:47:13;99901.88;;;23.81;52.06
28630;BME280;15817;42.130;24.762;2022-07-05T03:49:44;99891.59;;;23.72;52.41
28630;BME280;15817;42.130;24.762;2022-07-05T03:52:16;99903.16;;;23.76;52.41
28630;BME280;15817;42.130;24.762;2022-07-05T03:54:43;99893.50;;;23.70;52.95
28630;BME280;15817;42.130;24.762;2022-07-05T03:57:11;99892.06;;;23.65;53.23
28630;BME280;15817;42.130;24.762;2022-07-05T03:59:38;99895.97;;;23.75;53.19
28630;BME280;15817;42.130;24.762;2022-07-05T04:02:04;99903.16;;;23.76;53.30
28630;BME280;15817;42.130;24.762;2022-07-05T04:04:30;99890.44;;;23.76;53.54
28630;BME280;15817;42.130;24.762;2022-07-05T04:07:04;99885.78;;;23.78;53.64
28630;BME280;15817;42.130;24.762;2022-07-05T04:09:31;99897.25;;;23.83;53.85
28630;BME280;15817;42.130;24.762;2022-07-05T04:11:57;99891.59;;;23.72;54.03
28630;BME280;15817;42.130;24.762;2022-07-05T04:14:23;99895.00;;;23.76;54.20
28630;BME280;15817;42.130;24.762;2022-07-05T04:17:11;99872.66;;;23.71;54.38
28630;BME280;15817;42.130;24.762;2022-07-05T04:19:37;99872.41;;;23.75;54.07
28630;BME280;15817;42.130;24.762;2022-07-05T04:22:03;99877.13;;;23.72;53.96
28630;BME280;15817;42.130;24.762;2022-07-05T04:24:39;99862.34;;;23.62;nan
28630;BME280;15817;42.130;24.762;2022-07-05T04:27:23;99878.00;;;23.72;54.40
28630;BME280;15817;42.130;24.762;2022-07-05T04:29:53;99881.69;;;23.71;53.89
28630;BME280;15817;42.130;24.762;2022-07-05T04:32:19;99864.69;;;23.68;53.58
28630;BME280;15817;42.130;24.762;2022-07-05T04:34:45;99872.47;;;23.74;53.61
28630;BME280;15817;42.130;24.762;2022-07-05T04:37:11;99874.03;;;23.78;53.69
28630;BME280;15817;42.130;24.762;2022-07-05T04:39:37;99868.38;;;23.67;54.27
28630;BME280;15817;42.130;24.762;2022-07-05T04:42:07;99873.78;;;23.67;53.98
28630;BME280;15817;42.130;24.762;2022-07-05T04:44:33;99866.34;;;23.70;53.71
28630;BME280;15817;42.130;24.762;2022-07-05T04:47:02;99863.63;;;23.70;53.36
28630;BME280;15817;42.130;24.762;2022-07-05T04:49:31;99859.00;;;23.72;53.11
28630;BME280;15817;42.130;24.762;2022-07-05T04:51:57;99874.03;;;23.78;53.12
28630;BME280;15817;42.130;24.762;2022-07-05T04:54:22;99881.13;;;23.80;53.01
28630;BME280;15817;42.130;24.762;2022-07-05T04:56:48;99865.88;;;23.78;53.33
28630;BME280;15817;42.130;24.762;2022-07-05T04:59:14;99877.19;;;23.86;53.22
28630;BME280;15817;42.130;24.762;2022-07-05T05:01:40;99864.13;;;23.77;53.11
28630;BME280;15817;42.130;24.762;2022-07-05T05:04:10;99870.16;;;23.82;52.78
28630;BME280;15817;42.130;24.762;2022-07-05T05:06:41;99866.50;;;23.83;52.43
28630;BME280;15817;42.130;24.762;2022-07-05T05:09:07;99866.66;;;23.80;52.08
28630;BME280;15817;42.130;24.762;2022-07-05T05:11:33;99882.53;;;23.88;52.27
28630;BME280;15817;42.130;24.762;2022-07-05T05:13:59;99882.41;;;23.89;52.10
28630;BME280;15817;42.130;24.762;2022-07-05T05:16:24;99878.94;;;23.87;52.23
28630;BME280;15817;42.130;24.762;2022-07-05T05:18:56;99896.59;;;23.94;52.12
28630;BME280;15817;42.130;24.762;2022-07-05T05:21:22;99893.88;;;23.94;52.15
28630;BME280;15817;42.130;24.762;2022-07-05T05:23:53;99894.16;;;23.90;51.80
28630;BME280;15817;42.130;24.762;2022-07-05T05:26:48;99894.84;;;23.93;51.94
28630;BME280;15817;42.130;24.762;2022-07-05T05:29:19;99899.94;;;23.99;51.82
28630;BME280;15817;42.130;24.762;2022-07-05T05:31:47;99909.81;;;24.00;52.51
28630;BME280;15817;42.130;24.762;2022-07-05T05:34:33;99902.13;;;23.93;52.54
28630;BME280;15817;42.130;24.762;2022-07-05T05:37:04;99900.28;;;23.93;52.16
28630;BME280;15817;42.130;24.762;2022-07-05T05:39:33;99901.78;;;23.99;52.28
28630;BME280;15817;42.130;24.762;2022-07-05T05:42:01;99901.56;;;24.02;52.80
28630;BME280;15817;42.130;24.762;2022-07-05T05:44:27;99896.22;;;24.00;52.00
28630;BME280;15817;42.130;24.762;2022-07-05T05:46:53;99899.72;;;24.02;52.20
28630;BME280;15817;42.130;24.762;2022-07-05T05:49:19;99903.03;;;24.07;52.47
28630;BME280;15817;42.130;24.762;2022-07-05T05:51:49;99888.06;;;24.00;51.97
28630;BME280;15817;42.130;24.762;2022-07-05T05:54:15;99898.50;;;24.08;52.18
28630;BME280;15817;42.130;24.762;2022-07-05T05:56:43;99898.41;;;24.09;51.96
28630;BME280;15817;42.130;24.762;2022-07-05T05:59:21;99900.03;;;24.12;51.90
28630;BME280;15817;42.130;24.762;2022-07-05T06:01:57;99903.84;;;24.09;52.28
28630;BME280;15817;42.130;24.762;2022-07-05T06:04:26;99908.97;;;24.14;52.27
28630;BME280;15817;42.130;24.762;2022-07-05T06:06:52;99912.47;;;24.16;52.45
28630;BME280;15817;42.130;24.762;2022-07-05T06:09:18;99913.88;;;24.23;52.57
28630;BME280;15817;42.130;24.762;2022-07-05T06:11:44;99900.38;;;24.22;52.15
28630;BME280;15817;42.130;24.762;2022-07-05T06:14:09;99904.38;;;24.30;52.57
28630;BME280;15817;42.130;24.762;2022-07-05T06:16:37;99907.97;;;24.31;52.30
28630;BME280;15817;42.130;24.762;2022-07-05T06:19:02;99884.75;;;24.25;51.89
28630;BME280;15817;42.130;24.762;2022-07-05T06:21:28;99888.94;;;24.31;51.90
28630;BME280;15817;42.130;24.762;2022-07-05T06:23:57;99887.78;;;24.35;51.94
28630;BME280;15817;42.130;24.762;2022-07-05T06:26:22;99877.28;;;24.29;52.28
28630;BME280;15817;42.130;24.762;2022-07-05T06:28:57;99866.16;;;24.33;52.80
28630;BME280;15817;42.130;24.762;2022-07-05T06:31:25;99877.22;;;24.44;52.78
28630;BME280;15817;42.130;24.762;2022-07-05T06:33:51;99885.75;;;24.52;52.42
28630;BME280;15817;42.130;24.762;2022-07-05T06:36:17;99884.69;;;24.55;51.79
28630;BME280;15817;42.130;24.762;2022-07-05T06:38:43;99882.84;;;24.56;51.87
28630;BME280;15817;42.130;24.762;2022-07-05T06:41:08;99875.84;;;24.51;51.98
28630;BME280;15817;42.130;24.762;2022-07-05T06:43:37;99873.13;;;24.51;52.18
28630;BME280;15817;42.130;24.762;2022-07-05T06:46:07;99862.84;;;24.57;52.55
28630;BME280;15817;42.130;24.762;2022-07-05T06:48:33;99862.63;;;24.60;52.99
28630;BME280;15817;42.130;24.762;2022-07-05T06:50:59;99865.16;;;24.63;52.97
28630;BME280;15817;42.130;24.762;2022-07-05T06:53:27;99853.31;;;24.64;52.59
28630;BME280;15817;42.130;24.762;2022-07-05T06:55:55;99863.13;;;24.66;51.81
28630;BME280;15817;42.130;24.762;2022-07-05T06:58:21;99852.16;;;24.68;50.96
28630;BME280;15817;42.130;24.762;2022-07-05T07:00:52;99852.63;;;24.74;50.34
28630;BME280;15817;42.130;24.762;2022-07-05T07:03:19;99850.78;;;24.75;50.13
28630;BME280;15817;42.130;24.762;2022-07-05T07:05:44;99849.91;;;24.74;49.83
28630;BME280;15817;42.130;24.762;2022-07-05T07:08:12;99845.16;;;24.78;49.74
28630;BME280;15817;42.130;24.762;2022-07-05T07:10:57;99843.84;;;24.83;49.83
28630;BME280;15817;42.130;24.762;2022-07-05T07:13:22;99839.00;;;24.88;50.32
28630;BME280;15817;42.130;24.762;2022-07-05T07:15:48;99835.03;;;24.94;50.31
28630;BME280;15817;42.130;24.762;2022-07-05T07:18:14;99839.50;;;24.95;50.15
28630;BME280;15817;42.130;24.762;2022-07-05T07:20:41;99836.50;;;25.00;49.84
28630;BME280;15817;42.130;24.762;2022-07-05T07:23:07;99827.34;;;25.01;50.54
28630;BME280;15817;42.130;24.762;2022-07-05T07:25:33;99824.00;;;25.10;49.81
28630;BME280;15817;42.130;24.762;2022-07-05T07:27:59;99826.03;;;25.20;49.77
28630;BME280;15817;42.130;24.762;2022-07-05T07:30:26;99833.47;;;25.31;49.48
28630;BME280;15817;42.130;24.762;2022-07-05T07:32:53;99830.66;;;25.33;48.54
28630;BME280;15817;42.130;24.762;2022-07-05T07:35:20;99839.16;;;25.41;48.67
28630;BME280;15817;42.130;24.762;2022-07-05T07:37:46;99832.84;;;25.40;48.42
28630;BME280;15817;42.130;24.762;2022-07-05T07:40:12;99832.34;;;25.48;47.74
28630;BME280;15817;42.130;24.762;2022-07-05T07:42:38;99833.09;;;25.50;45.60
28630;BME280;15817;42.130;24.762;2022-07-05T07:45:05;99828.50;;;25.50;43.79
28630;BME280;15817;42.130;24.762;2022-07-05T07:47:31;99846.91;;;25.61;45.13
28630;BME280;15817;42.130;24.762;2022-07-05T07:49:57;99849.97;;;25.69;45.85
28630;BME280;15817;42.130;24.762;2022-07-05T07:52:23;99840.94;;;25.69;45.96
28630;BME280;15817;42.130;24.762;2022-07-05T07:54:49;99838.44;;;25.78;44.51
28630;BME280;15817;42.130;24.762;2022-07-05T07:57:15;99836.03;;;25.86;45.11
28630;BME280;15817;42.130;24.762;2022-07-05T07:59:41;99848.94;;;25.97;43.50
28630;BME280;15817;42.130;24.762;2022-07-05T08:02:07;99855.06;;;26.13;43.16
28630;BME280;15817;42.130;24.762;2022-07-05T08:04:36;99857.91;;;26.24;42.63
28630;BME280;15817;42.130;24.762;2022-07-05T08:07:02;99846.16;;;26.37;42.21
28630;BME280;15817;42.130;24.762;2022-07-05T08:09:32;99853.78;;;26.57;40.92
28630;BME280;15817;42.130;24.762;2022-07-05T08:11:58;99848.31;;;26.69;40.11
28630;BME280;15817;42.130;24.762;2022-07-05T08:14:24;99854.41;;;26.98;38.94
28630;BME280;15817;42.130;24.762;2022-07-05T08:16:50;99845.81;;;27.16;38.11
28630;BME280;15817;42.130;24.762;2022-07-05T08:19:17;99851.63;;;27.35;36.88
28630;BME280;15817;42.130;24.762;2022-07-05T08:22:01;99856.81;;;27.63;37.01
28630;BME280;15817;42.130;24.762;2022-07-05T08:24:30;99856.00;;;27.85;34.45
28630;BME280;15817;42.130;24.762;2022-07-05T08:26:58;99846.41;;;28.03;34.21
28630;BME280;15817;42.130;24.762;2022-07-05T08:29:27;99841.00;;;28.26;34.18
28630;BME280;15817;42.130;24.762;2022-07-05T08:31:53;99839.41;;;28.45;34.10
28630;BME280;15817;42.130;24.762;2022-07-05T08:34:19;99837.19;;;28.73;34.38
28630;BME280;15817;42.130;24.762;2022-07-05T08:36:49;99840.31;;;28.91;35.24
28630;BME280;15817;42.130;24.762;2022-07-05T08:39:20;99837.53;;;29.02;34.56
28630;BME280;15817;42.130;24.762;2022-07-05T08:41:50;99831.66;;;29.29;33.87
28630;BME280;15817;42.130;24.762;2022-07-05T08:44:21;99832.97;;;29.45;32.88
28630;BME280;15817;42.130;24.762;2022-07-05T08:46:49;99821.72;;;29.60;33.04
28630;BME280;15817;42.130;24.762;2022-07-05T08:49:28;99833.66;;;29.90;31.59
28630;BME280;15817;42.130;24.762;2022-07-05T08:51:56;99829.50;;;30.07;30.92
28630;BME280;15817;42.130;24.762;2022-07-05T08:54:24;99821.38;;;30.27;30.76
28630;BME280;15817;42.130;24.762;2022-07-05T08:56:51;99813.66;;;30.41;30.42
28630;BME280;15817;42.130;24.762;2022-07-05T08:59:19;99811.72;;;30.53;30.55
28630;BME280;15817;42.130;24.762;2022-07-05T09:01:46;99819.31;;;30.70;30.52
28630;BME280;15817;42.130;24.762;2022-07-05T09:04:17;99812.03;;;31.00;30.55
28630;BME280;15817;42.130;24.762;2022-07-05T09:06:46;99812.56;;;31.24;30.80
28630;BME280;15817;42.130;24.762;2022-07-05T09:09:13;99808.09;;;31.33;30.04
28630;BME280;15817;42.130;24.762;2022-07-05T09:11:41;99794.06;;;31.45;30.14
28630;BME280;15817;42.130;24.762;2022-07-05T09:14:27;99803.47;;;31.62;31.31
28630;BME280;15817;42.130;24.762;2022-07-05T09:16:53;99791.19;;;31.76;31.66
28630;BME280;15817;42.130;24.762;2022-07-05T09:19:19;99790.59;;;32.01;31.33
28630;BME280;15817;42.130;24.762;2022-07-05T09:21:47;99791.88;;;32.16;30.83
28630;BME280;15817;42.130;24.762;2022-07-05T09:24:25;99791.25;;;32.32;31.63
28630;BME280;15817;42.130;24.762;2022-07-05T09:27:04;99790.63;;;32.48;30.72
28630;BME280;15817;42.130;24.762;2022-07-05T09:29:30;99790.31;;;32.60;30.90
28630;BME280;15817;42.130;24.762;2022-07-05T09:31:56;99780.72;;;32.74;31.43
28630;BME280;15817;42.130;24.762;2022-07-05T09:34:24;99787.84;;;32.94;30.68
28630;BME280;15817;42.130;24.762;2022-07-05T09:42:24;99783.28;;;33.30;31.40
28630;BME280;15817;42.130;24.762;2022-07-05T09:45:28;99775.50;;;33.43;31.55
28630;BME280;15817;42.130;24.762;2022-07-05T09:47:54;99771.94;;;33.51;30.53
28630;BME280;15817;42.130;24.762;2022-07-05T09:50:35;99769.91;;;33.53;30.52
28630;BME280;15817;42.130;24.762;2022-07-05T09:53:01;99773.13;;;33.49;30.37
28630;BME280;15817;42.130;24.762;2022-07-05T09:55:29;99767.53;;;33.76;29.94
28630;BME280;15817;42.130;24.762;2022-07-05T09:58:01;99759.94;;;33.96;29.72
28630;BME280;15817;42.130;24.762;2022-07-05T10:00:27;99759.50;;;34.08;29.76
28630;BME280;15817;42.130;24.762;2022-07-05T10:02:55;99753.00;;;34.17;28.80
28630;BME280;15817;42.130;24.762;2022-07-05T10:05:29;99748.34;;;34.36;28.92
28630;BME280;15817;42.130;24.762;2022-07-05T10:07:59;99746.63;;;34.43;27.74
28630;BME280;15817;42.130;24.762;2022-07-05T10:10:30;99751.72;;;34.64;28.18
28630;BME280;15817;42.130;24.762;2022-07-05T10:12:58;99747.03;;;34.82;28.16
28630;BME280;15817;42.130;24.762;2022-07-05T10:15:29;99744.25;;;34.82;27.60
28630;BME280;15817;42.130;24.762;2022-07-05T10:20:39;99742.56;;;34.97;28.26
28630;BME280;15817;42.130;24.762;2022-07-05T10:23:18;99739.31;;;35.10;27.79
28630;BME280;15817;42.130;24.762;2022-07-05T10:25:46;99737.94;;;35.14;27.58
28630;BME280;15817;42.130;24.762;2022-07-05T10:28:16;99745.97;;;35.25;27.79
28630;BME280;15817;42.130;24.762;2022-07-05T10:30:47;99736.38;;;35.19;27.10
28630;BME280;15817;42.130;24.762;2022-07-05T10:33:17;99727.59;;;35.16;27.40
28630;BME280;15817;42.130;24.762;2022-07-05T10:35:47;99721.72;;;35.19;28.03
28630;BME280;15817;42.130;24.762;2022-07-05T10:38:13;99724.38;;;35.29;28.29
28630;BME280;15817;42.130;24.762;2022-07-05T10:40:42;99727.13;;;35.37;28.32
28630;BME280;15817;42.130;24.762;2022-07-05T10:43:09;99712.44;;;35.52;28.13
28630;BME280;15817;42.130;24.762;2022-07-05T10:45:49;99716.59;;;35.40;28.12
28630;BME280;15817;42.130;24.762;2022-07-05T10:48:20;99718.50;;;35.48;27.68
28630;BME280;15817;42.130;24.762;2022-07-05T10:58:42;99712.63;;;35.83;28.24
28630;BME280;15817;42.130;24.762;2022-07-05T11:01:32;99687.16;;;35.96;27.90
28630;BME280;15817;42.130;24.762;2022-07-05T11:06:45;99694.91;;;36.17;27.60
28630;BME280;15817;42.130;24.762;2022-07-05T11:09:17;99696.16;;;36.06;26.99
28630;BME280;15817;42.130;24.762;2022-07-05T11:11:45;99698.06;;;35.98;28.31
28630;BME280;15817;42.130;24.762;2022-07-05T11:19:58;99685.06;;;36.06;29.00
28630;BME280;15817;42.130;24.762;2022-07-05T11:22:28;99684.91;;;35.91;28.98
28630;BME280;15817;42.130;24.762;2022-07-05T11:24:58;99673.16;;;35.89;29.06
28630;BME280;15817;42.130;24.762;2022-07-05T11:27:28;99676.84;;;35.74;29.30
28630;BME280;15817;42.130;24.762;2022-07-05T11:29:55;99660.19;;;35.82;29.51
28630;BME280;15817;42.130;24.762;2022-07-05T11:35:31;99654.59;;;36.06;28.30
28630;BME280;15817;42.130;24.762;2022-07-05T11:38:09;99648.31;;;36.28;28.68
28630;BME280;15817;42.130;24.762;2022-07-05T11:40:36;99646.75;;;36.34;28.83
28630;BME280;15817;42.130;24.762;2022-07-05T11:43:03;99651.97;;;36.29;29.28
28630;BME280;15817;42.130;24.762;2022-07-05T11:45:30;99648.09;;;36.38;28.79
28630;BME280;15817;42.130;24.762;2022-07-05T11:47:56;99639.50;;;36.33;29.04
28630;BME280;15817;42.130;24.762;2022-07-05T11:50:27;99638.25;;;36.36;29.02
28630;BME280;15817;42.130;24.762;2022-07-05T11:52:53;99641.91;;;36.28;29.09
28630;BME280;15817;42.130;24.762;2022-07-05T11:55:19;99637.59;;;36.25;29.25
28630;BME280;15817;42.130;24.762;2022-07-05T11:57:50;99619.25;;;36.16;29.68
28630;BME280;15817;42.130;24.762;2022-07-05T12:00:32;99629.72;;;35.98;29.99
28630;BME280;15817;42.130;24.762;2022-07-05T12:02:59;99627.50;;;35.85;29.15
28630;BME280;15817;42.130;24.762;2022-07-05T12:05:31;99624.22;;;35.82;29.59
28630;BME280;15817;42.130;24.762;2022-07-05T12:07:57;99626.81;;;35.83;29.99
28630;BME280;15817;42.130;24.762;2022-07-05T12:10:24;99621.78;;;35.87;29.83
28630;BME280;15817;42.130;24.762;2022-07-05T12:13:11;99627.50;;;35.85;29.34
28630;BME280;15817;42.130;24.762;2022-07-05T12:15:37;99619.41;;;35.76;29.51
28630;BME280;15817;42.130;24.762;2022-07-05T12:18:04;99613.47;;;35.79;29.86
28630;BME280;15817;42.130;24.762;2022-07-05T12:20:32;99610.03;;;35.69;29.58
28630;BME280;15817;42.130;24.762;2022-07-05T12:22:59;99615.38;;;35.70;30.10
28630;BME280;15817;42.130;24.762;2022-07-05T12:25:27;99615.38;;;35.78;29.94
28630;BME280;15817;42.130;24.762;2022-07-05T12:27:55;99613.00;;;35.75;30.19
28630;BME280;15817;42.130;24.762;2022-07-05T12:30:21;99605.91;;;35.65;29.89
28630;BME280;15817;42.130;24.762;2022-07-05T12:33:08;99617.50;;;35.76;30.08
28630;BME280;15817;42.130;24.762;2022-07-05T12:35:40;99606.38;;;35.68;30.13
28630;BME280;15817;42.130;24.762;2022-07-05T12:38:17;99602.78;;;35.60;30.22
28630;BME280;15817;42.130;24.762;2022-07-05T12:40:48;99607.44;;;35.59;30.44
28630;BME280;15817;42.130;24.762;2022-07-05T12:43:16;99601.91;;;35.59;30.46
28630;BME280;15817;42.130;24.762;2022-07-05T12:46:06;99600.72;;;35.62;30.31
28630;BME280;15817;42.130;24.762;2022-07-05T12:48:37;99601.53;;;35.70;30.54
28630;BME280;15817;42.130;24.762;2022-07-05T12:51:04;99601.72;;;35.69;30.08
28630;BME280;15817;42.130;24.762;2022-07-05T12:53:31;99596.69;;;35.72;30.28
28630;BME280;15817;42.130;24.762;2022-07-05T12:56:15;99599.47;;;35.72;30.50
28630;BME280;15817;42.130;24.762;2022-07-05T12:59:02;99589.44;;;35.71;30.54
28630;BME280;15817;42.130;24.762;2022-07-05T13:01:33;99587.53;;;35.72;30.59
28630;BME280;15817;42.130;24.762;2022-07-05T13:06:45;99581.47;;;35.68;30.45
28630;BME280;15817;42.130;24.762;2022-07-05T13:09:13;99582.50;;;35.67;31.17
28630;BME280;15817;42.130;24.762;2022-07-05T13:11:42;99586.31;;;35.66;30.79
28630;BME280;15817;42.130;24.762;2022-07-05T13:14:08;99575.09;;;35.60;30.68
28630;BME280;15817;42.130;24.762;2022-07-05T13:16:34;99579.59;;;35.61;31.35
28630;BME280;15817;42.130;24.762;2022-07-05T13:19:08;99579.81;;;35.51;31.24
28630;BME280;15817;42.130;24.762;2022-07-05T13:21:33;99574.59;;;35.48;30.90
28630;BME280;15817;42.130;24.762;2022-07-05T13:24:00;99568.38;;;35.46;31.31
28630;BME280;15817;42.130;24.762;2022-07-05T13:26:25;99570.66;;;35.34;31.72
28630;BME280;15817;42.130;24.762;2022-07-05T13:28:51;99557.34;;;35.38;31.50